Terminal Aerodrome Forecast
Issued by NWS Albany, NY

Home | Current Version | Previous Version | Text Only | Print | Product List | Glossary On
Versions: 1 2 3 4 5 6 7 8 9 10 11 12 13 14 15 16
000
FTUS41 KALY 050232 AAA
TAFPOU
TAF AMD
KPOU 050232Z 0503/0524 00000KT 4SM BR SKC
     FM050600 00000KT 3SM BR SCT005
     FM051200 VRB03KT P6SM SKC
     FM051700 27005KT P6SM SCT200=

USA.gov is the U.S. government's official web portal to all federal, state and local government web resources and services.